Time;durP1;ratioP1;P1;durP2;ratioP2;P2;SDS_P1;SDS_P2;PMS_P1;PMS_P2;Temp;Humidity;BMP_temperature;BMP_pressure;BME280_temperature;BME280_humidity;BME280_pressure;Samples;Min_cycle;Max_cycle;Signal;HPM_P1;HPM_P2
2022/05/16 00:02:00;;;;;;;11.93;2.90;;;;;;;17.02;55.92;101456.06;5053084;28;20029;-72
2022/05/16 00:04:26;;;;;;;10.95;3.40;;;;;;;17.02;55.94;101452.59;5052443;28;20089;-72
2022/05/16 00:06:51;;;;;;;6.93;2.58;;;;;;;16.97;55.83;101463.47;5031522;28;20055;-72
2022/05/16 00:09:16;;;;;;;8.82;2.63;;;;;;;16.97;55.87;101452.88;5044975;28;20093;-72
2022/05/16 00:11:42;;;;;;;7.50;2.67;;;;;;;16.96;56.24;101451.16;5038620;28;20258;-72
2022/05/16 00:14:08;;;;;;;6.03;2.63;;;;;;;16.94;56.25;101447.75;5047270;28;20049;-73
2022/05/16 00:16:33;;;;;;;9.20;3.28;;;;;;;16.93;56.50;101453.13;5047683;28;20045;-72
2022/05/16 00:18:59;;;;;;;9.82;2.83;;;;;;;16.92;56.49;101444.34;5051094;28;20040;-73
2022/05/16 00:21:24;;;;;;;13.60;3.58;;;;;;;16.86;56.73;101436.75;5047878;28;20345;-73
2022/05/16 00:23:50;;;;;;;8.32;3.55;;;;;;;16.85;56.68;101435.06;5047784;28;20034;-72
2022/05/16 00:26:15;;;;;;;7.90;3.28;;;;;;;16.83;56.89;101431.66;5047889;28;20045;-72
2022/05/16 00:28:41;;;;;;;13.60;3.03;;;;;;;16.83;57.43;101423.72;5044562;28;21248;-72
2022/05/16 00:31:06;;;;;;;9.93;3.17;;;;;;;16.79;57.22;101424.78;5047900;28;20319;-72
2022/05/16 00:33:32;;;;;;;10.30;3.40;;;;;;;16.76;57.64;101420.53;5014116;28;20033;-72
2022/05/16 00:35:58;;;;;;;7.03;2.85;;;;;;;16.74;57.57;101416.28;5047257;28;20364;-72
2022/05/16 00:38:23;;;;;;;9.98;3.20;;;;;;;16.73;57.69;101415.41;5047080;28;20060;-72
2022/05/16 00:40:49;;;;;;;6.30;2.80;;;;;;;16.69;57.66;101414.72;5043356;28;20392;-72
2022/05/16 00:43:23;;;;;;;10.35;2.97;;;;;;;16.70;58.22;101412.97;5047631;28;20101;-72
2022/05/16 00:45:48;;;;;;;9.98;2.72;;;;;;;16.66;58.00;101409.63;5047965;28;20049;-72
2022/05/16 00:48:14;;;;;;;7.13;2.83;;;;;;;16.62;58.33;101405.44;5047462;28;20056;-72
2022/05/16 00:50:40;;;;;;;7.57;2.88;;;;;;;16.59;58.58;101412.69;5046806;28;20104;-72
2022/05/16 00:53:07;;;;;;;8.48;2.85;;;;;;;16.60;58.42;101406.47;5047012;28;20033;-72
2022/05/16 00:55:37;;;;;;;9.70;3.60;;;;;;;16.58;58.73;101395.97;5045978;28;20093;-72
2022/05/16 00:58:13;;;;;;;8.35;3.45;;;;;;;16.52;58.55;101391.06;5041160;28;20076;-72
2022/05/16 01:00:41;;;;;;;8.80;2.60;;;;;;;16.53;58.71;101383.97;5053857;28;20294;-73
2022/05/16 01:06:01;;;;;;;12.35;3.72;;;;;;;16.47;59.07;101387.81;5047546;28;20024;-72
2022/05/16 01:08:30;;;;;;;4.75;2.97;;;;;;;16.47;59.00;101380.72;5046627;28;20085;-72
2022/05/16 01:11:00;;;;;;;8.63;3.00;;;;;;;16.43;59.40;101383.66;5029662;28;20064;-72
2022/05/16 01:13:27;;;;;;;9.13;3.10;;;;;;;16.41;59.19;101385.50;5046207;28;20029;-72
2022/05/16 01:15:53;;;;;;;10.02;3.47;;;;;;;16.39;59.26;101388.25;5042779;28;20041;-72
2022/05/16 01:18:21;;;;;;;12.13;3.50;;;;;;;16.40;59.64;101378.53;5042940;28;20033;-72
2022/05/16 01:21:08;;;;;;;7.65;2.90;;;;;;;16.37;59.63;101374.28;5043883;28;20113;-72
2022/05/16 01:23:43;;;;;;;7.32;2.97;;;;;;;16.37;59.52;101378.69;5044254;28;20065;-72
2022/05/16 01:26:15;;;;;;;11.27;2.65;;;;;;;16.36;59.82;101380.50;5044195;28;20368;-72
2022/05/16 01:28:40;;;;;;;11.60;3.47;;;;;;;16.38;59.59;101378.63;5042285;28;20033;-72
2022/05/16 01:31:05;;;;;;;9.82;3.25;;;;;;;16.36;59.91;101375.22;5043083;28;20060;-72
2022/05/16 01:33:31;;;;;;;10.38;2.90;;;;;;;16.28;59.92;101375.66;5044121;28;20033;-72
2022/05/16 01:35:56;;;;;;;6.93;3.00;;;;;;;16.26;60.24;101371.38;5043177;28;20072;-72
2022/05/16 01:38:26;;;;;;;16.60;3.20;;;;;;;16.25;60.10;101372.31;5046327;28;20037;-72
2022/05/16 01:41:00;;;;;;;11.55;3.15;;;;;;;16.28;59.98;101377.41;5027776;28;20036;-72
2022/05/16 01:43:33;;;;;;;8.32;2.78;;;;;;;16.29;60.08;101379.97;5045056;28;20045;-72
2022/05/16 01:45:59;;;;;;;9.18;3.20;;;;;;;16.27;59.99;101363.34;5042356;28;20348;-72
2022/05/16 01:48:27;;;;;;;8.48;3.50;;;;;;;16.24;60.56;101362.69;5045413;28;20069;-72
2022/05/16 01:50:58;;;;;;;10.40;3.55;;;;;;;16.21;60.36;101358.44;5028003;28;20104;-72
2022/05/16 01:53:23;;;;;;;6.65;3.03;;;;;;;16.16;60.62;101356.97;5045074;28;20030;-72
2022/05/16 01:55:48;;;;;;;9.73;3.13;;;;;;;16.16;60.47;101356.97;5027166;28;20096;-72
2022/05/16 01:58:14;;;;;;;10.13;3.67;;;;;;;16.18;60.60;101360.38;5045271;28;20045;-72
2022/05/16 02:00:39;;;;;;;7.07;3.10;;;;;;;16.16;60.89;101360.47;5046730;28;20044;-72
2022/05/16 02:03:05;;;;;;;11.80;3.72;;;;;;;16.18;60.77;101360.38;5046753;28;20265;-72
2022/05/16 02:05:31;;;;;;;5.97;3.08;;;;;;;16.20;60.87;101363.78;5044088;28;20276;-72
2022/05/16 02:07:57;;;;;;;5.03;2.90;;;;;;;16.18;60.73;101355.94;5044287;28;20033;-72
2022/05/16 02:10:25;;;;;;;6.50;3.00;;;;;;;16.20;60.73;101356.72;5051565;28;20037;-72
2022/05/16 02:12:51;;;;;;;9.75;4.18;;;;;;;16.16;61.05;101346.41;5045669;28;20045;-72
2022/05/16 02:15:20;;;;;;;9.70;4.00;;;;;;;16.09;61.46;101356.47;5022885;28;20372;-73
2022/05/16 02:17:46;;;;;;;8.65;3.25;;;;;;;16.02;61.64;101339.25;5028700;28;20375;-73
2022/05/16 02:20:12;;;;;;;7.80;3.05;;;;;;;16.01;61.43;101340.16;5036385;28;20045;-73
2022/05/16 02:25:22;;;;;;;6.57;3.38;;;;;;;15.97;61.67;101346.56;5039173;28;20051;-75
2022/05/16 02:27:51;;;;;;;8.50;3.08;;;;;;;15.87;61.78;101333.03;5043926;28;20068;-75
2022/05/16 02:30:20;;;;;;;5.63;3.05;;;;;;;15.89;61.74;101334.63;5037978;28;20343;-74
2022/05/16 02:32:46;;;;;;;10.88;3.53;;;;;;;15.89;61.85;101328.50;5037419;28;20064;-75
2022/05/16 02:35:11;;;;;;;6.28;3.35;;;;;;;15.83;61.89;101319.13;5037521;28;20088;-75
2022/05/16 02:37:37;;;;;;;8.70;3.50;;;;;;;15.77;62.33;101308.94;5037285;28;20061;-74
2022/05/16 02:40:04;;;;;;;7.63;3.53;;;;;;;15.78;62.38;101301.84;5035532;28;20268;-75
2022/05/16 02:42:30;;;;;;;8.35;3.30;;;;;;;15.68;62.51;101297.03;5036605;28;20041;-75
2022/05/16 02:44:55;;;;;;;13.52;3.95;;;;;;;15.65;62.85;101297.19;5037325;28;20060;-75
2022/05/16 02:47:22;;;;;;;7.90;3.35;;;;;;;15.70;62.93;101310.16;5037443;28;20318;-75
2022/05/16 02:49:48;;;;;;;8.05;2.90;;;;;;;15.79;62.19;101311.47;5037344;28;20046;-75
2022/05/16 02:52:14;;;;;;;6.70;3.45;;;;;;;15.82;62.43;101306.84;5037308;28;20149;-74
2022/05/16 02:54:40;;;;;;;9.55;4.00;;;;;;;15.81;62.22;101296.38;5036459;28;20029;-75
2022/05/16 02:57:07;;;;;;;10.25;4.00;;;;;;;15.73;62.40;101299.41;5037274;28;20292;-75
2022/05/16 02:59:33;;;;;;;11.13;3.53;;;;;;;15.71;62.33;101303.94;5036882;28;20048;-75
2022/05/16 03:02:03;;;;;;;8.27;3.45;;;;;;;15.73;62.65;101297.66;5036961;28;20090;-75
2022/05/16 03:04:29;;;;;;;7.18;3.10;;;;;;;15.70;62.81;101303.09;5036411;28;20096;-75
2022/05/16 03:06:55;;;;;;;5.30;3.05;;;;;;;15.74;62.62;101311.72;5019716;28;20021;-74
2022/05/16 03:09:22;;;;;;;5.53;3.15;;;;;;;15.78;62.81;101299.22;5037107;28;20087;-75
2022/05/16 03:11:48;;;;;;;9.25;4.13;;;;;;;15.72;62.82;101287.16;5036783;28;20108;-74
2022/05/16 03:14:13;;;;;;;8.13;3.22;;;;;;;15.70;62.59;101281.97;5037118;28;20041;-74
2022/05/16 03:16:39;;;;;;;9.77;3.63;;;;;;;15.67;62.94;101286.56;5036491;28;20041;-74
2022/05/16 03:19:05;;;;;;;5.18;3.00;;;;;;;15.72;62.71;101290.66;5037248;28;20037;-75
2022/05/16 03:21:31;;;;;;;11.65;3.47;;;;;;;15.70;62.63;101291.69;5036698;28;20049;-75
2022/05/16 03:23:57;;;;;;;5.05;3.13;;;;;;;15.76;62.31;101304.56;5037392;28;20065;-75
2022/05/16 03:26:24;;;;;;;8.63;3.15;;;;;;;15.83;61.92;101313.00;5037189;28;20041;-75
2022/05/16 03:28:49;;;;;;;10.60;3.88;;;;;;;15.86;61.83;101297.84;5036363;28;20041;-75
2022/05/16 03:31:15;;;;;;;4.47;3.00;;;;;;;15.90;61.67;101309.94;5037006;28;20056;-75
2022/05/16 03:33:40;;;;;;;8.82;2.95;;;;;;;15.93;61.31;101307.13;5036491;28;20092;-74
2022/05/16 03:36:06;;;;;;;7.82;3.33;;;;;;;15.96;61.62;101297.34;5039900;28;20107;-75
2022/05/16 03:41:16;;;;;;;5.45;2.83;;;;;;;16.02;61.16;101302.25;5040129;28;20061;-75
2022/05/16 03:43:42;;;;;;;5.28;2.63;;;;;;;16.03;61.27;101296.06;5029658;28;20041;-75
2022/05/16 03:46:09;;;;;;;6.90;2.95;;;;;;;16.03;61.09;101294.25;5032613;28;20312;-75
2022/05/16 03:48:35;;;;;;;9.50;3.78;;;;;;;15.99;61.78;101292.72;5038659;28;20218;-75
2022/05/16 03:51:02;;;;;;;5.60;3.40;;;;;;;16.00;61.42;101304.97;5039361;28;20352;-75
2022/05/16 03:53:27;;;;;;;5.80;2.95;;;;;;;16.02;61.13;101304.91;5038130;28;20075;-74
2022/05/16 03:55:53;;;;;;;7.10;3.35;;;;;;;16.02;60.93;101295.19;5039220;28;20296;-75
2022/05/16 03:58:19;;;;;;;7.88;3.15;;;;;;;16.01;61.71;101293.50;5038875;28;20367;-75
2022/05/16 04:00:45;;;;;;;7.13;3.22;;;;;;;16.00;61.70;101289.13;5038706;28;20108;-75
2022/05/16 04:03:11;;;;;;;9.48;3.22;;;;;;;16.01;61.48;101300.53;5038761;28;20404;-75
2022/05/16 04:05:36;;;;;;;7.38;3.03;;;;;;;16.02;61.25;101297.81;5038549;28;20040;-75
2022/05/16 04:08:03;;;;;;;3.45;2.67;;;;;;;16.03;61.55;101298.69;5038781;28;20360;-75
2022/05/16 04:10:28;;;;;;;12.32;4.05;;;;;;;15.99;62.29;101294.50;5038002;28;20048;-75
2022/05/16 04:12:54;;;;;;;9.75;4.10;;;;;;;15.98;62.51;101285.72;5038713;28;20041;-75
2022/05/16 04:15:21;;;;;;;5.55;3.47;;;;;;;15.97;62.28;101289.34;5038011;28;20045;-75
2022/05/16 04:17:47;;;;;;;4.03;2.92;;;;;;;15.97;62.22;101283.19;5038077;28;20278;-75
2022/05/16 04:20:13;;;;;;;6.82;3.72;;;;;;;15.98;61.76;101292.81;5038907;28;20037;-75
2022/05/16 04:22:39;;;;;;;7.53;3.92;;;;;;;15.97;62.48;101289.34;5038397;28;20265;-75
2022/05/16 04:25:06;;;;;;;9.52;3.97;;;;;;;15.98;62.55;101279.59;5037859;28;20036;-75
2022/05/16 04:27:31;;;;;;;9.45;3.88;;;;;;;15.92;62.96;101281.66;5037882;28;20037;-75
2022/05/16 04:29:57;;;;;;;7.25;3.63;;;;;;;15.88;62.83;101280.13;5042615;28;20067;-75
2022/05/16 04:32:22;;;;;;;6.05;3.55;;;;;;;15.91;62.64;101287.84;5052998;28;20045;-75
2022/05/16 04:34:47;;;;;;;13.20;4.28;;;;;;;15.87;62.91;101270.50;5037969;28;20033;-75
2022/05/16 04:37:13;;;;;;;7.82;4.07;;;;;;;15.82;63.54;101274.31;5037300;28;20053;-75
2022/05/16 04:39:38;;;;;;;9.68;4.88;;;;;;;15.80;63.68;101281.50;5038187;28;20045;-74
2022/05/16 04:44:49;;;;;;;5.95;3.60;;;;;;;15.91;63.26;101279.09;5037837;28;20041;-75
2022/05/16 04:47:14;;;;;;;4.93;2.97;;;;;;;15.96;62.43;101287.63;5037805;28;20041;-75
2022/05/16 04:49:40;;;;;;;9.13;2.92;;;;;;;15.99;62.55;101290.09;5037979;28;20237;-74
2022/05/16 04:52:06;;;;;;;8.27;2.63;;;;;;;16.03;62.36;101280.22;5031191;28;20064;-75
2022/05/16 04:54:32;;;;;;;3.33;2.35;;;;;;;16.05;62.12;101292.38;5036973;28;20273;-74
2022/05/16 04:56:57;;;;;;;5.80;2.90;;;;;;;16.09;62.29;101296.53;5037733;28;20045;-75
2022/05/16 04:59:23;;;;;;;5.82;2.83;;;;;;;16.10;62.03;101294.78;5034743;28;20045;-75
2022/05/16 05:01:49;;;;;;;6.95;3.13;;;;;;;16.13;62.10;101307.78;5035076;28;20048;-75
2022/05/16 05:04:15;;;;;;;5.35;3.70;;;;;;;16.13;62.57;101291.94;5037883;28;20053;-75
2022/05/16 05:06:41;;;;;;;4.93;3.25;;;;;;;16.15;62.46;101295.34;5051879;28;20036;-74
2022/05/16 05:09:07;;;;;;;5.53;3.10;;;;;;;16.16;62.55;101296.22;5039529;28;20333;-75
2022/05/16 05:14:32;;;;;;;9.35;3.88;;;;;;;16.18;63.27;101295.16;5037871;28;20380;-75
2022/05/16 05:16:58;;;;;;;7.05;3.63;;;;;;;16.18;63.41;101289.88;5037426;28;20045;-75
2022/05/16 05:19:23;;;;;;;9.77;4.00;;;;;;;16.17;63.29;101293.50;5036147;28;20092;-75
2022/05/16 05:21:49;;;;;;;7.55;3.58;;;;;;;16.20;62.95;101298.56;5037351;28;20033;-75
2022/05/16 05:24:15;;;;;;;6.50;3.28;;;;;;;16.22;62.87;101293.22;5037441;28;20049;-75
2022/05/16 05:26:42;;;;;;;5.57;3.25;;;;;;;16.22;62.93;101301.97;5023273;28;20037;-75
2022/05/16 05:29:08;;;;;;;6.28;3.58;;;;;;;16.25;62.63;101298.31;5037087;28;20048;-75
2022/05/16 05:31:34;;;;;;;4.57;3.10;;;;;;;16.25;63.10;101303.63;5037078;28;20037;-75
2022/05/16 05:33:59;;;;;;;8.95;3.33;;;;;;;16.26;63.12;101307.94;5037385;28;20111;-75
2022/05/16 05:36:28;;;;;;;7.20;3.40;;;;;;;16.26;62.82;101316.75;5018826;28;20053;-75
2022/05/16 05:38:53;;;;;;;6.22;3.40;;;;;;;16.27;62.92;101318.44;5036630;28;20045;-75
2022/05/16 05:41:21;;;;;;;5.65;2.78;;;;;;;16.28;62.52;101316.63;5039041;28;20045;-75
2022/05/16 05:43:47;;;;;;;5.80;3.28;;;;;;;16.29;62.98;101324.47;5035667;28;20340;-75
2022/05/16 05:46:12;;;;;;;7.82;3.38;;;;;;;16.29;62.90;101331.56;5036149;28;20057;-75
2022/05/16 05:48:38;;;;;;;6.60;4.00;;;;;;;16.29;63.10;101332.41;5036023;28;20067;-75
2022/05/16 05:51:03;;;;;;;4.90;3.42;;;;;;;16.30;62.88;101333.28;5034688;28;20061;-75
2022/05/16 05:53:29;;;;;;;4.03;3.00;;;;;;;16.30;63.09;101334.13;5035289;28;20049;-74
2022/05/16 05:55:54;;;;;;;5.22;3.33;;;;;;;16.31;62.94;101343.75;5034875;28;20034;-75
2022/05/16 05:58:20;;;;;;;7.32;3.45;;;;;;;16.31;62.99;101343.75;5034845;28;20041;-75
2022/05/16 06:00:46;;;;;;;6.53;3.25;;;;;;;16.31;62.84;101337.59;5036310;28;20573;-75
2022/05/16 06:03:11;;;;;;;5.13;3.47;;;;;;;16.33;62.69;101348.09;5031774;28;20029;-75
2022/05/16 06:05:37;;;;;;;8.00;4.18;;;;;;;16.33;62.83;101343.66;5035395;28;20038;-75
2022/05/16 06:08:03;;;;;;;5.75;3.70;;;;;;;16.34;62.77;101342.72;5035172;28;20037;-75
2022/05/16 06:10:29;;;;;;;5.60;3.22;;;;;;;16.35;62.55;101343.56;5036563;28;20037;-75
2022/05/16 06:12:54;;;;;;;4.85;3.40;;;;;;;16.35;62.31;101347.06;5035467;28;20337;-75
2022/05/16 06:15:20;;;;;;;4.85;2.90;;;;;;;16.36;62.72;101345.28;5033968;28;20045;-75
2022/05/16 06:17:46;;;;;;;4.07;3.35;;;;;;;16.36;62.53;101350.56;5040773;28;20060;-74
2022/05/16 06:20:14;;;;;;;3.70;3.05;;;;;;;16.37;62.19;101358.44;5037667;28;20041;-74
2022/05/16 06:22:39;;;;;;;5.07;3.00;;;;;;;16.37;62.03;101345.22;5035726;28;20080;-75
2022/05/16 06:27:52;;;;;;;9.73;4.07;;;;;;;16.40;63.22;101352.09;5035387;28;20237;-75
2022/05/16 06:30:19;;;;;;;9.88;4.05;;;;;;;16.42;65.11;101350.22;5035430;28;20041;-74
2022/05/16 06:32:45;;;;;;;8.73;3.70;;;;;;;16.43;65.43;101347.50;5030587;28;20033;-74
2022/05/16 06:35:11;;;;;;;11.70;4.40;;;;;;;16.48;65.49;101342.78;5021193;28;20061;-74
2022/05/16 06:37:36;;;;;;;4.65;3.28;;;;;;;16.53;65.37;101353.09;5030216;28;20349;-75
2022/05/16 06:40:03;;;;;;;8.68;4.25;;;;;;;16.57;66.00;101351.13;5016154;28;20099;-75
2022/05/16 06:42:28;;;;;;;7.20;3.75;;;;;;;16.61;65.59;101350.03;5037333;28;20242;-75
2022/05/16 06:44:54;;;;;;;6.88;3.47;;;;;;;16.66;65.53;101351.47;5024561;28;20314;-75
2022/05/16 06:47:19;;;;;;;7.95;3.70;;;;;;;16.69;65.89;101353.06;5037821;28;20038;-75
2022/05/16 06:49:44;;;;;;;5.38;3.90;;;;;;;16.73;66.16;101359.03;5037430;28;20349;-75
2022/05/16 06:52:10;;;;;;;8.50;4.20;;;;;;;16.77;66.75;101356.13;5027956;28;20223;-75
2022/05/16 06:54:35;;;;;;;4.28;3.45;;;;;;;16.81;66.57;101355.00;5033913;28;20374;-74
2022/05/16 06:57:01;;;;;;;13.07;4.78;;;;;;;16.87;68.31;101356.47;5037063;28;20381;-75
2022/05/16 06:59:26;;;;;;;5.05;4.05;;;;;;;16.94;67.51;101352.50;5032333;28;20099;-75
2022/05/16 07:01:52;;;;;;;6.05;3.88;;;;;;;17.01;67.31;101351.19;5032129;28;20041;-75
2022/05/16 07:04:18;;;;;;;8.50;4.43;;;;;;;17.08;67.17;101352.53;5020926;28;20093;-75
2022/05/16 07:06:43;;;;;;;7.00;3.90;;;;;;;17.15;66.53;101344.22;5029643;28;20032;-75
2022/05/16 07:09:08;;;;;;;5.75;3.97;;;;;;;17.23;66.93;101345.47;5025287;28;20053;-75
2022/05/16 07:11:34;;;;;;;4.55;3.38;;;;;;;17.31;66.72;101345.00;5038740;28;20037;-75
2022/05/16 07:13:59;;;;;;;10.60;3.63;;;;;;;17.35;66.21;101338.56;5037137;28;20064;-75
2022/05/16 07:16:25;;;;;;;9.60;4.10;;;;;;;17.39;66.50;101349.81;5037420;28;20367;-75
2022/05/16 07:18:50;;;;;;;5.18;3.30;;;;;;;17.43;66.34;101357.47;5027645;28;20293;-75
2022/05/16 07:21:16;;;;;;;8.63;3.70;;;;;;;17.48;66.42;101364.28;5031144;28;20241;-75
2022/05/16 07:23:41;;;;;;;4.72;3.08;;;;;;;17.52;65.97;101360.50;5038345;28;20530;-75
2022/05/16 07:28:51;;;;;;;5.55;3.53;;;;;;;17.60;66.70;101371.47;5034100;28;20048;-75
2022/05/16 07:31:16;;;;;;;6.97;4.05;;;;;;;17.65;66.88;101372.06;5027216;28;20277;-75
2022/05/16 07:33:41;;;;;;;14.20;3.95;;;;;;;17.70;66.68;101379.69;5032300;28;20363;-75
2022/05/16 07:36:07;;;;;;;11.27;4.00;;;;;;;17.73;66.07;101377.72;5030510;28;20053;-75
2022/05/16 07:38:33;;;;;;;5.82;3.60;;;;;;;17.77;65.97;101378.38;5030794;28;20242;-75
2022/05/16 07:40:58;;;;;;;6.72;3.40;;;;;;;17.79;66.32;101376.47;5029069;28;20042;-76
2022/05/16 07:43:25;;;;;;;10.43;3.75;;;;;;;17.84;66.70;101379.69;5029943;28;20340;-75
2022/05/16 07:45:51;;;;;;;9.80;4.22;;;;;;;17.87;67.10;101382.19;5031787;28;20403;-75
2022/05/16 07:48:17;;;;;;;3.63;2.83;;;;;;;17.92;66.62;101379.22;5037444;28;20129;-75
2022/05/16 07:50:44;;;;;;;5.50;3.63;;;;;;;17.96;66.50;101378.13;5034920;28;20287;-75
2022/05/16 07:53:11;;;;;;;6.70;3.08;;;;;;;18.00;66.12;101376.97;5036082;28;20105;-75
2022/05/16 07:55:39;;;;;;;4.00;3.37;;;;;;;18.06;66.81;101381.88;5035393;28;20049;-75
2022/05/16 07:58:05;;;;;;;6.10;3.42;;;;;;;18.11;66.89;101390.38;5032871;28;20037;-75
2022/05/16 08:00:31;;;;;;;8.25;2.90;;;;;;;18.17;66.83;101391.78;5036669;28;20083;-76
2022/05/16 08:02:56;;;;;;;7.00;3.08;;;;;;;18.25;67.50;101392.16;5035488;28;20331;-76
2022/05/16 08:05:22;;;;;;;7.13;2.80;;;;;;;18.33;67.93;101381.91;5031186;28;20041;-75
2022/05/16 08:10:55;;;;;;;6.28;2.67;;;;;;;18.48;67.33;101390.69;4953854;29;20394;-75
2022/05/16 08:13:20;;;;;;;4.90;2.38;;;;;;;18.57;66.55;101390.06;4955499;29;20050;-75
2022/05/16 08:15:45;;;;;;;4.82;2.28;;;;;;;18.64;66.36;101403.75;4992218;28;20076;-76
2022/05/16 08:18:12;;;;;;;2.72;2.47;;;;;;;18.70;67.20;101399.84;5037095;28;20052;-76
2022/05/16 08:20:41;;;;;;;7.15;2.40;;;;;;;18.79;67.53;101394.81;5036753;28;20392;-76
2022/05/16 08:23:06;;;;;;;7.60;3.08;;;;;;;18.92;67.28;101394.03;5037156;28;20049;-75
2022/05/16 08:25:32;;;;;;;6.53;2.53;;;;;;;18.97;66.31;101392.75;5034852;28;20160;-75
2022/05/16 08:27:58;;;;;;;6.68;2.47;;;;;;;19.06;66.05;101390.41;5035196;28;20033;-76
2022/05/16 08:30:24;;;;;;;3.90;2.15;;;;;;;19.10;64.99;101391.91;5033820;28;20076;-75
2022/05/16 08:32:51;;;;;;;7.25;2.67;;;;;;;19.15;65.32;101390.63;5028312;28;20367;-75
2022/05/16 08:35:18;;;;;;;5.57;2.85;;;;;;;19.23;65.90;101391.91;5028302;28;20221;-75
2022/05/16 08:40:53;;;;;;;5.65;2.42;;;;;;;19.36;65.88;101401.59;5034087;28;20083;-75
2022/05/16 08:43:26;;;;;;;9.27;2.70;;;;;;;19.47;67.01;101392.91;5029479;28;20052;-76
2022/05/16 08:46:02;;;;;;;3.55;2.17;;;;;;;19.59;67.23;101382.38;5037851;28;20329;-75
2022/05/16 08:48:38;;;;;;;4.65;1.90;;;;;;;19.66;66.22;101387.13;5028158;28;20100;-75
2022/05/16 08:51:11;;;;;;;6.30;2.10;;;;;;;19.74;65.04;101391.97;5025899;28;20040;-76
2022/05/16 08:53:46;;;;;;;7.97;2.30;;;;;;;19.89;65.11;101392.69;5027571;28;20033;-75
2022/05/16 08:56:22;;;;;;;5.78;2.63;;;;;;;19.94;63.76;101395.84;5034444;28;20030;-75
2022/05/16 08:59:05;;;;;;;7.18;2.65;;;;;;;20.00;63.80;101402.53;5025122;28;20096;-75
2022/05/16 09:01:36;;;;;;;4.90;2.38;;;;;;;20.06;63.82;101423.34;5026665;28;20125;-75
2022/05/16 09:04:16;;;;;;;11.63;3.63;;;;;;;20.12;64.44;101422.94;5026443;28;20084;-76
2022/05/16 09:06:57;;;;;;;7.68;2.58;;;;;;;20.27;63.74;101421.81;5034820;28;20082;-76
2022/05/16 09:09:28;;;;;;;7.00;2.80;;;;;;;20.41;63.69;101431.47;5038726;28;20030;-76
2022/05/16 09:12:09;;;;;;;12.85;2.90;;;;;;;20.54;64.11;101431.41;5034359;28;20051;-76
2022/05/16 09:14:49;;;;;;;8.48;3.42;;;;;;;20.65;62.86;101430.66;5034943;28;20044;-76
2022/05/16 09:17:29;;;;;;;4.78;2.22;;;;;;;20.68;62.50;101435.72;5024679;28;20088;-76
2022/05/16 09:20:20;;;;;;;13.40;2.50;;;;;;;20.66;62.83;101454.47;5029668;28;20474;-76
2022/05/16 09:22:48;;;;;;;11.93;2.75;;;;;;;20.69;62.66;101456.91;5020062;28;20030;-76
2022/05/16 09:25:21;;;;;;;6.35;2.30;;;;;;;20.77;63.10;101448.34;5028042;28;20120;-76
2022/05/16 09:30:44;;;;;;;4.47;2.38;;;;;;;20.79;62.88;101449.13;5023257;28;20179;-75
2022/05/16 09:33:14;;;;;;;14.05;2.33;;;;;;;20.87;63.02;101472.50;5022723;28;20018;-76
2022/05/16 09:36:03;;;;;;;5.88;2.30;;;;;;;20.89;62.79;101484.72;5034176;28;20056;-76
2022/05/16 09:38:29;;;;;;;11.63;2.60;;;;;;;20.89;62.78;101487.38;5031517;28;20041;-76
2022/05/16 09:41:03;;;;;;;9.23;2.40;;;;;;;20.88;62.83;101498.13;5032582;28;20072;-76
2022/05/16 09:43:39;;;;;;;8.25;2.88;;;;;;;20.81;62.54;101505.75;5022808;28;20041;-76
2022/05/16 09:46:25;;;;;;;18.83;3.40;;;;;;;20.78;62.35;101500.63;5028978;28;20029;-76
2022/05/16 09:49:15;;;;;;;9.82;3.20;;;;;;;20.74;62.62;101504.50;5027227;28;20317;-76
2022/05/16 09:51:46;;;;;;;8.02;2.97;;;;;;;20.68;63.13;101513.78;5026181;28;20051;-76
2022/05/16 09:54:22;;;;;;;6.90;3.00;;;;;;;20.62;63.12;101508.88;5025993;28;20088;-76
2022/05/16 09:57:16;;;;;;;5.63;2.45;;;;;;;20.57;63.30;101497.69;5031277;28;20239;-76
2022/05/16 09:59:49;;;;;;;7.45;2.60;;;;;;;20.53;63.60;101497.06;5021066;28;20065;-76
2022/05/16 10:02:19;;;;;;;3.22;2.60;;;;;;;20.50;63.43;101512.41;5031088;28;20037;-76
2022/05/16 10:04:47;;;;;;;6.53;2.40;;;;;;;20.44;63.63;101545.63;5035934;28;20044;-76
2022/05/16 10:07:13;;;;;;;15.32;3.22;;;;;;;20.38;64.88;101559.38;5036154;28;20021;-76
2022/05/16 10:09:50;;;;;;;4.10;2.50;;;;;;;20.32;66.39;101573.94;5010474;28;20029;-76
2022/05/16 10:12:19;;;;;;;5.25;2.40;;;;;;;20.29;66.63;101578.63;5029063;28;20108;-76
2022/05/16 10:14:46;;;;;;;8.52;2.58;;;;;;;20.27;67.53;101580.56;5025938;28;20093;-76
2022/05/16 10:17:29;;;;;;;10.27;3.03;;;;;;;20.24;68.88;101580.75;5027270;28;20336;-76
2022/05/16 10:20:00;;;;;;;8.82;3.03;;;;;;;20.22;69.92;101583.53;5020428;28;20329;-76
2022/05/16 10:22:27;;;;;;;4.75;3.08;;;;;;;20.22;70.45;101585.34;5029741;28;20229;-76
2022/05/16 10:24:55;;;;;;;14.05;3.28;;;;;;;20.20;69.89;101597.88;5034494;28;20029;-76
2022/05/16 10:27:34;;;;;;;7.22;3.20;;;;;;;20.17;70.92;101606.91;5025933;28;20045;-76
2022/05/16 10:30:11;;;;;;;6.88;4.65;;;;;;;20.11;71.71;101628.63;5035000;28;20327;-76
2022/05/16 10:35:31;;;;;;;7.60;5.75;;;;;;;19.90;71.53;101626.47;5025302;28;20092;-76
2022/05/16 10:38:01;;;;;;;10.95;6.82;;;;;;;19.79;72.05;101633.47;5010516;28;20265;-76
2022/05/16 10:40:27;;;;;;;12.10;7.13;;;;;;;19.68;72.33;101624.38;4992961;28;20024;-75
2022/05/16 10:43:27;;;;;;;14.25;7.30;;;;;;;19.60;72.90;101641.78;5007081;28;20057;-76
2022/05/16 10:46:01;;;;;;;11.27;6.93;;;;;;;19.57;72.82;101640.16;5010966;28;20284;-76
2022/05/16 10:48:41;;;;;;;15.85;8.60;;;;;;;19.54;72.40;101641.22;5007475;28;20029;-76
2022/05/16 10:51:23;;;;;;;15.18;9.05;;;;;;;19.48;73.09;101643.44;4985054;28;20073;-76
2022/05/16 10:54:22;;;;;;;12.40;7.88;;;;;;;19.49;73.32;101647.81;5002723;28;20038;-76
2022/05/16 10:56:50;;;;;;;18.27;9.50;;;;;;;19.47;73.83;101655.03;5007437;28;20350;-76
2022/05/16 10:59:31;;;;;;;18.52;10.65;;;;;;;19.41;75.00;101653.63;5010255;28;20389;-76
2022/05/16 11:02:11;;;;;;;15.63;11.35;;;;;;;19.34;74.87;101658.47;5012018;28;20029;-76
2022/05/16 11:04:44;;;;;;;23.52;15.65;;;;;;;19.26;75.21;101670.53;5005475;28;20273;-76
2022/05/16 11:07:22;;;;;;;30.42;16.30;;;;;;;19.18;75.43;101669.22;5004665;28;20088;-76
2022/05/16 11:10:14;;;;;;;22.20;14.80;;;;;;;19.15;75.32;101668.56;5008843;28;20042;-76
2022/05/16 11:13:00;;;;;;;28.20;15.90;;;;;;;19.03;75.55;101675.50;5013129;28;20034;-76
2022/05/16 11:15:45;;;;;;;25.88;15.25;;;;;;;18.95;75.59;101681.28;5019237;28;20102;-76
2022/05/16 11:18:51;;;;;;;15.23;11.20;;;;;;;18.86;75.27;101678.38;5010847;28;20065;-75
2022/05/16 11:21:29;;;;;;;15.25;9.32;;;;;;;18.82;75.42;101685.66;4999347;28;20378;-76
2022/05/16 11:24:13;;;;;;;13.40;7.10;;;;;;;18.77;74.12;101693.00;5013092;28;20045;-76
2022/05/16 11:26:58;;;;;;;8.52;5.95;;;;;;;18.73;73.81;101686.19;5001247;28;20038;-75
2022/05/16 11:29:52;;;;;;;12.63;5.47;;;;;;;18.58;75.13;101694.16;4985038;28;20223;-76
2022/05/16 11:32:46;;;;;;;11.38;6.80;;;;;;;18.49;76.61;101700.00;5013152;28;20289;-76
2022/05/16 11:35:16;;;;;;;12.95;6.45;;;;;;;18.50;76.70;101698.22;5003367;28;20326;-76
2022/05/16 11:38:01;;;;;;;15.20;6.65;;;;;;;18.43;77.43;101697.75;5004079;28;20065;-77
2022/05/16 11:40:46;;;;;;;12.57;6.65;;;;;;;18.35;78.08;101700.84;5010897;28;20053;-77
2022/05/16 11:43:25;;;;;;;13.05;6.28;;;;;;;18.26;77.51;101703.19;5009466;28;20045;-77
2022/05/16 11:46:08;;;;;;;14.63;7.05;;;;;;;17.94;78.38;101706.78;5012014;28;20123;-76
2022/05/16 11:48:40;;;;;;;17.45;8.85;;;;;;;17.76;79.11;101710.47;5011297;28;20233;-77
2022/05/16 11:51:38;;;;;;;12.77;7.63;;;;;;;17.81;78.74;101714.56;5012578;28;20096;-76
2022/05/16 11:54:05;;;;;;;17.55;9.02;;;;;;;17.82;78.64;101702.16;4982329;28;20034;-76
2022/05/16 12:02:48;;;;;;;12.35;9.30;;;;;;;17.85;79.24;101715.28;5013763;28;20036;-76
2022/05/16 12:05:19;;;;;;;22.77;10.18;;;;;;;17.91;79.39;101706.97;5017178;28;20256;-76
2022/05/16 12:07:47;;;;;;;22.88;11.35;;;;;;;17.90;81.47;101710.56;5017256;28;20388;-76
2022/05/16 12:10:15;;;;;;;23.02;12.63;;;;;;;17.89;81.83;101706.19;5009602;28;20131;-76